createdAt,value
2016-12-06T00:00:22.759Z,24.22
2016-12-06T00:01:03.527Z,24.16
2016-12-06T00:01:44.290Z,24.21
2016-12-06T00:02:25.052Z,24.18
2016-12-06T00:03:05.797Z,24.21
2016-12-06T00:03:46.585Z,24.16
2016-12-06T00:04:27.331Z,24.18
2016-12-06T00:05:08.092Z,24.3
2016-12-06T00:05:48.875Z,24.27
2016-12-06T00:06:29.639Z,24.22
2016-12-06T00:07:10.405Z,24.18
2016-12-06T00:07:51.194Z,24.22
2016-12-06T00:08:31.959Z,24.2
2016-12-06T00:09:12.710Z,24.24
2016-12-06T00:09:53.465Z,24.28
2016-12-06T00:10:34.233Z,24.25
2016-12-06T00:11:14.956Z,24.27
2016-12-06T00:11:55.705Z,24.18
2016-12-06T00:12:36.467Z,24.27
2016-12-06T00:13:17.217Z,24.22
2016-12-06T00:13:57.978Z,24.18
2016-12-06T00:14:38.790Z,24.18
2016-12-06T00:15:19.526Z,24.25
2016-12-06T00:16:00.278Z,24.28
2016-12-06T00:16:41.066Z,24.22
2016-12-06T00:17:21.824Z,24.21
2016-12-06T00:18:02.580Z,24.22
2016-12-06T00:18:43.340Z,24.18
2016-12-06T00:19:24.102Z,24.3
2016-12-06T00:20:04.838Z,24.22
2016-12-06T00:20:45.597Z,24.24
2016-12-06T00:21:26.364Z,24.21
2016-12-06T00:22:07.130Z,24.28
2016-12-06T00:22:47.909Z,24.24
2016-12-06T00:23:28.685Z,24.27
2016-12-06T00:24:09.449Z,24.3
2016-12-06T00:24:50.181Z,24.24
2016-12-06T00:25:30.955Z,24.21
2016-12-06T00:26:11.718Z,24.27
2016-12-06T00:26:52.453Z,24.2
2016-12-06T00:27:33.223Z,24.21
2016-12-06T00:28:13.976Z,24.2
2016-12-06T00:28:54.724Z,24.21
2016-12-06T00:29:35.508Z,24.2
2016-12-06T00:30:16.247Z,24.25
2016-12-06T00:30:57.030Z,24.27
2016-12-06T00:31:37.776Z,24.32
2016-12-06T00:32:18.519Z,24.27
2016-12-06T00:32:59.312Z,24.22
2016-12-06T00:33:40.055Z,24.24
2016-12-06T00:34:20.807Z,24.18
2016-12-06T00:35:01.595Z,24.21
2016-12-06T00:35:42.362Z,24.25
2016-12-06T00:36:23.111Z,24.28
2016-12-06T00:37:03.855Z,24.2
2016-12-06T00:37:44.634Z,24.2
2016-12-06T00:38:25.361Z,24.21
2016-12-06T00:39:06.151Z,24.24
2016-12-06T00:39:46.934Z,24.22
2016-12-06T00:40:27.688Z,24.28
2016-12-06T00:41:08.447Z,24.22
2016-12-06T00:41:49.843Z,24.24
2016-12-06T00:42:30.593Z,24.18
2016-12-06T00:43:11.338Z,24.15
2016-12-06T00:43:52.129Z,24.25
2016-12-06T00:44:32.882Z,24.32
2016-12-06T00:45:13.632Z,24.25
2016-12-06T00:45:54.398Z,24.2
2016-12-06T00:46:35.164Z,24.24
2016-12-06T00:47:15.907Z,24.15
2016-12-06T00:47:56.672Z,24.15
2016-12-06T00:48:37.432Z,24.2
2016-12-06T00:49:18.169Z,24.16
2016-12-06T00:49:58.944Z,24.16
2016-12-06T00:50:39.694Z,24.28
2016-12-06T00:51:20.449Z,24.21
2016-12-06T00:52:01.200Z,24.21
2016-12-06T00:52:41.969Z,24.22
2016-12-06T00:53:22.716Z,24.21
2016-12-06T00:54:03.466Z,24.2
2016-12-06T00:54:44.254Z,24.18
2016-12-06T00:55:25.015Z,24.18
2016-12-06T00:56:05.774Z,24.15
2016-12-06T00:56:46.533Z,24.22
2016-12-06T00:57:27.291Z,24.16
2016-12-06T00:58:08.015Z,24.24
2016-12-06T00:58:48.782Z,24.13
2016-12-06T00:59:29.572Z,24.18
2016-12-06T01:00:10.311Z,24.09
2016-12-06T01:00:51.082Z,24.05
2016-12-06T01:01:31.849Z,24.13
2016-12-06T01:02:12.604Z,24.15
2016-12-06T01:02:53.357Z,24.18
2016-12-06T01:03:34.133Z,24.15
2016-12-06T01:04:14.878Z,24.2
2016-12-06T01:04:55.635Z,24.16
2016-12-06T01:05:36.415Z,24.15
2016-12-06T01:06:17.175Z,24.2
2016-12-06T01:06:57.932Z,24.2
2016-12-06T01:07:38.707Z,24.15
2016-12-06T01:08:19.477Z,24.21
2016-12-06T01:09:00.223Z,24.12
2016-12-06T01:09:40.975Z,24.16
2016-12-06T01:10:21.742Z,24.09
2016-12-06T01:11:02.485Z,24.24
2016-12-06T01:11:44.179Z,24.15
2016-12-06T01:12:24.936Z,24.08
2016-12-06T01:13:05.686Z,24.08
2016-12-06T01:13:46.429Z,24.21
2016-12-06T01:14:27.203Z,24.16
2016-12-06T01:15:07.941Z,24.13
2016-12-06T01:15:48.678Z,24.15
2016-12-06T01:16:29.471Z,24.18
2016-12-06T01:17:10.227Z,24.16
2016-12-06T01:17:51.014Z,24.15
2016-12-06T01:18:31.752Z,24.21
2016-12-06T01:19:12.548Z,24.18
2016-12-06T01:19:53.293Z,24.12
2016-12-06T01:20:34.056Z,24.21
2016-12-06T01:21:14.824Z,24.1
2016-12-06T01:21:55.565Z,24.18
2016-12-06T01:22:36.342Z,24.05
2016-12-06T01:23:17.101Z,24.18
2016-12-06T01:23:57.846Z,24.18
2016-12-06T01:24:38.599Z,24.15
2016-12-06T01:25:19.378Z,24.1
2016-12-06T01:26:00.132Z,24.12
2016-12-06T01:26:40.865Z,24.12
2016-12-06T01:27:21.657Z,24.06
2016-12-06T01:28:02.389Z,24.16
2016-12-06T01:28:43.159Z,24.15
2016-12-06T01:29:23.898Z,24.16
2016-12-06T01:30:04.667Z,24.15
2016-12-06T01:30:45.410Z,24.21
2016-12-06T01:31:26.182Z,24.15
2016-12-06T01:32:06.953Z,24.2
2016-12-06T01:32:47.718Z,24.18
2016-12-06T01:33:28.501Z,24.16
2016-12-06T01:34:09.249Z,24.13
2016-12-06T01:34:50.010Z,24.12
2016-12-06T01:35:30.764Z,24.1
2016-12-06T01:36:11.538Z,24.12
2016-12-06T01:36:52.311Z,24.08
2016-12-06T01:37:33.067Z,24.08
2016-12-06T01:38:13.859Z,24.06
2016-12-06T01:38:54.608Z,24.08
2016-12-06T01:39:35.383Z,24.02
2016-12-06T01:40:16.140Z,24.09
2016-12-06T01:40:56.917Z,24.09
2016-12-06T01:41:37.672Z,24.09
2016-12-06T01:42:18.458Z,24.09
2016-12-06T01:42:59.222Z,24.1
2016-12-06T01:43:39.973Z,24.12
2016-12-06T01:44:20.744Z,24.13
2016-12-06T01:45:01.499Z,24.1
2016-12-06T01:45:42.245Z,24.1
2016-12-06T01:46:23.009Z,24.1
2016-12-06T01:47:03.799Z,24.13
2016-12-06T01:47:44.543Z,24.02
2016-12-06T01:48:25.287Z,24.09
2016-12-06T01:49:06.064Z,24.1
2016-12-06T01:49:46.805Z,24.13
2016-12-06T01:50:27.553Z,24.06
2016-12-06T01:51:08.321Z,24.1
2016-12-06T01:51:49.092Z,24.09
2016-12-06T01:52:29.855Z,24.06
2016-12-06T01:53:10.627Z,24.13
2016-12-06T01:53:51.400Z,24.09
2016-12-06T01:54:32.119Z,24.09
2016-12-06T01:55:12.888Z,24.09
2016-12-06T01:55:53.650Z,24.09
2016-12-06T01:56:34.396Z,24.03
2016-12-06T01:57:15.131Z,24.1
2016-12-06T01:57:55.898Z,24.16
2016-12-06T01:58:36.666Z,24.09
2016-12-06T01:59:17.454Z,24.1
2016-12-06T01:59:58.226Z,24.05
2016-12-06T02:00:38.976Z,24.05
2016-12-06T02:01:19.761Z,24.09
2016-12-06T02:02:00.529Z,24.08
2016-12-06T02:02:41.287Z,24.1
2016-12-06T02:03:22.015Z,24.09
2016-12-06T02:04:02.798Z,24.09
2016-12-06T02:04:43.554Z,24.06
2016-12-06T02:05:24.315Z,24.12
2016-12-06T02:06:05.102Z,24.02
2016-12-06T02:06:45.862Z,24.1
2016-12-06T02:07:26.626Z,24.09
2016-12-06T02:08:07.372Z,24.05
2016-12-06T02:08:48.179Z,24.06
2016-12-06T02:09:28.908Z,24.02
2016-12-06T02:10:09.648Z,24.08
2016-12-06T02:10:50.407Z,24.05
2016-12-06T02:11:31.152Z,24.09
2016-12-06T02:12:11.911Z,24.08
2016-12-06T02:12:52.688Z,24.03
2016-12-06T02:13:33.445Z,24.09
2016-12-06T02:14:14.186Z,24.08
2016-12-06T02:14:54.958Z,24.06
2016-12-06T02:15:35.730Z,24.03
2016-12-06T02:16:16.461Z,24.05
2016-12-06T02:16:57.223Z,24.05
2016-12-06T02:17:37.970Z,24.1
2016-12-06T02:18:18.723Z,24.03
2016-12-06T02:18:59.482Z,24.03
2016-12-06T02:19:40.258Z,24.02
2016-12-06T02:20:21.010Z,24.05
2016-12-06T02:21:01.759Z,24.08
2016-12-06T02:21:42.547Z,24.05
2016-12-06T02:22:23.285Z,24.05
2016-12-06T02:23:04.038Z,24.02
2016-12-06T02:23:44.800Z,23.97
2016-12-06T02:24:25.564Z,24.06
2016-12-06T02:25:06.317Z,24.03
2016-12-06T02:25:47.076Z,24.06
2016-12-06T02:26:27.867Z,24.09
2016-12-06T02:27:08.610Z,24.05
2016-12-06T02:27:49.382Z,24.02
2016-12-06T02:28:30.142Z,24.08
2016-12-06T02:29:10.886Z,24.06
2016-12-06T02:29:51.630Z,23.93
2016-12-06T02:30:32.413Z,24.03
2016-12-06T02:31:13.162Z,23.97
2016-12-06T02:31:53.911Z,23.94
2016-12-06T02:32:34.698Z,24.09
2016-12-06T02:33:15.436Z,24.02
2016-12-06T02:33:56.191Z,23.94
2016-12-06T02:34:36.970Z,24.03
2016-12-06T02:35:17.739Z,23.94
2016-12-06T02:35:58.471Z,24.05
2016-12-06T02:36:39.239Z,23.94
2016-12-06T02:37:20.008Z,24
2016-12-06T02:38:00.768Z,23.93
2016-12-06T02:38:41.530Z,23.95
2016-12-06T02:39:22.280Z,23.94
2016-12-06T02:40:03.024Z,23.93
2016-12-06T02:40:43.766Z,24
2016-12-06T02:41:24.533Z,23.91
2016-12-06T02:42:05.279Z,23.93
2016-12-06T02:42:46.046Z,24
2016-12-06T02:43:26.810Z,23.94
2016-12-06T02:44:07.571Z,24
2016-12-06T02:44:48.330Z,23.91
2016-12-06T02:45:29.092Z,24
2016-12-06T02:46:09.864Z,23.97
2016-12-06T02:46:50.593Z,23.94
2016-12-06T02:47:31.368Z,24
2016-12-06T02:48:12.134Z,23.94
2016-12-06T02:48:52.874Z,23.93
2016-12-06T02:49:33.650Z,23.91
2016-12-06T02:50:14.388Z,23.94
2016-12-06T02:50:55.141Z,23.97
2016-12-06T02:51:35.929Z,23.97
2016-12-06T02:52:16.691Z,23.98
2016-12-06T02:52:57.444Z,23.98
2016-12-06T02:53:38.218Z,23.93
2016-12-06T02:54:18.958Z,24.02
2016-12-06T02:54:59.741Z,23.98
2016-12-06T02:55:40.493Z,23.98
2016-12-06T02:56:21.260Z,23.98
2016-12-06T02:57:02.000Z,23.97
2016-12-06T02:57:42.786Z,23.93
2016-12-06T02:58:23.525Z,23.94
2016-12-06T02:59:04.307Z,24.08
2016-12-06T02:59:45.089Z,24
2016-12-06T03:00:25.837Z,24.03
2016-12-06T03:01:06.602Z,24.02
2016-12-06T03:01:47.368Z,23.91
2016-12-06T03:02:28.139Z,23.93
2016-12-06T03:03:08.900Z,23.95
2016-12-06T03:03:49.674Z,23.97
2016-12-06T03:04:30.452Z,23.98
2016-12-06T03:05:11.178Z,23.97
2016-12-06T03:05:51.945Z,23.98
2016-12-06T03:06:32.711Z,23.88
2016-12-06T03:07:13.449Z,23.93
2016-12-06T03:07:54.190Z,23.88
2016-12-06T03:08:34.968Z,24.03
2016-12-06T03:09:15.730Z,23.91
2016-12-06T03:09:56.500Z,23.98
2016-12-06T03:10:37.266Z,23.95
2016-12-06T03:11:18.033Z,23.91
2016-12-06T03:11:58.784Z,23.91
2016-12-06T03:12:39.567Z,23.95
2016-12-06T03:13:20.309Z,23.95
2016-12-06T03:14:01.059Z,23.91
2016-12-06T03:14:41.827Z,23.88
2016-12-06T03:15:22.581Z,23.93
2016-12-06T03:16:03.315Z,23.98
2016-12-06T03:16:44.124Z,23.97
2016-12-06T03:17:24.884Z,23.97
2016-12-06T03:18:05.636Z,23.95
2016-12-06T03:18:46.395Z,23.88
2016-12-06T03:19:27.175Z,23.93
2016-12-06T03:20:07.932Z,23.97
2016-12-06T03:20:48.692Z,23.91
2016-12-06T03:21:29.486Z,23.97
2016-12-06T03:22:10.232Z,23.93
2016-12-06T03:22:50.990Z,23.94
2016-12-06T03:23:31.749Z,23.91
2016-12-06T03:24:12.499Z,23.95
2016-12-06T03:24:53.250Z,23.91
2016-12-06T03:25:34.010Z,24
2016-12-06T03:26:14.788Z,23.95
2016-12-06T03:26:55.535Z,23.93
2016-12-06T03:27:36.287Z,23.93
2016-12-06T03:28:17.060Z,23.91
2016-12-06T03:28:57.813Z,23.91
2016-12-06T03:29:38.566Z,23.91
2016-12-06T03:30:19.356Z,23.91
2016-12-06T03:31:00.144Z,23.95
2016-12-06T03:31:40.886Z,23.93
2016-12-06T03:32:21.657Z,23.91
2016-12-06T03:33:02.394Z,23.91
2016-12-06T03:33:43.165Z,23.9
2016-12-06T03:34:23.925Z,23.9
2016-12-06T03:35:04.687Z,23.91
2016-12-06T03:35:45.442Z,23.91
2016-12-06T03:36:26.200Z,23.94
2016-12-06T03:37:06.959Z,23.85
2016-12-06T03:37:47.722Z,23.93
2016-12-06T03:38:28.495Z,23.9
2016-12-06T03:39:09.253Z,23.97
2016-12-06T03:39:49.984Z,23.95
2016-12-06T03:40:30.743Z,23.9
2016-12-06T03:41:11.489Z,23.93
2016-12-06T03:41:52.244Z,23.9
2016-12-06T03:42:32.999Z,23.9
2016-12-06T03:43:13.776Z,23.91
2016-12-06T03:43:54.522Z,23.93
2016-12-06T03:44:35.263Z,23.88
2016-12-06T03:45:16.044Z,24.02
2016-12-06T03:45:56.803Z,23.9
2016-12-06T03:46:37.568Z,23.97
2016-12-06T03:47:18.353Z,23.98
2016-12-06T03:47:59.108Z,23.91
2016-12-06T03:48:39.853Z,23.93
2016-12-06T03:49:20.611Z,23.98
2016-12-06T03:50:01.371Z,23.93
2016-12-06T03:50:42.096Z,23.91
2016-12-06T03:51:22.889Z,23.94
2016-12-06T03:52:03.649Z,23.97
2016-12-06T03:52:44.404Z,23.94
2016-12-06T03:53:25.149Z,23.9
2016-12-06T03:54:05.931Z,23.93
2016-12-06T03:54:46.689Z,23.94
2016-12-06T03:55:27.440Z,23.91
2016-12-06T03:56:08.220Z,23.9
2016-12-06T03:56:48.998Z,23.93
2016-12-06T03:57:29.748Z,23.85
2016-12-06T03:58:10.518Z,23.94
2016-12-06T03:58:51.281Z,23.95
2016-12-06T03:59:32.041Z,23.93
2016-12-06T04:00:12.806Z,23.88
2016-12-06T04:00:53.574Z,23.98
2016-12-06T04:01:34.315Z,23.88
2016-12-06T04:02:15.078Z,23.88
2016-12-06T04:02:55.829Z,23.87
2016-12-06T04:03:36.575Z,23.9
2016-12-06T04:04:17.337Z,23.87
2016-12-06T04:04:58.101Z,23.93
2016-12-06T04:05:38.842Z,23.88
2016-12-06T04:06:19.590Z,23.85
2016-12-06T04:07:00.368Z,23.97
2016-12-06T04:07:41.126Z,23.93
2016-12-06T04:08:21.875Z,23.9
2016-12-06T04:09:02.650Z,23.9
2016-12-06T04:09:43.396Z,23.91
2016-12-06T04:10:24.125Z,23.88
2016-12-06T04:11:04.881Z,23.91
2016-12-06T04:11:45.651Z,23.88
2016-12-06T04:12:26.381Z,23.84
2016-12-06T04:13:07.638Z,23.9
2016-12-06T04:13:48.408Z,23.97
2016-12-06T04:14:29.178Z,23.97
2016-12-06T04:15:09.915Z,23.91
2016-12-06T04:15:50.696Z,23.94
2016-12-06T04:16:31.448Z,23.88
2016-12-06T04:17:12.221Z,23.88
2016-12-06T04:17:53.028Z,23.85
2016-12-06T04:18:33.754Z,23.91
2016-12-06T04:19:14.498Z,23.9
2016-12-06T04:19:55.241Z,23.83
2016-12-06T04:20:36.028Z,23.84
2016-12-06T04:21:16.764Z,23.76
2016-12-06T04:21:57.528Z,23.87
2016-12-06T04:22:38.296Z,23.94
2016-12-06T04:23:19.030Z,23.94
2016-12-06T04:23:59.772Z,23.85
2016-12-06T04:24:40.568Z,23.8
2016-12-06T04:25:21.321Z,23.91
2016-12-06T04:26:02.055Z,23.9
2016-12-06T04:26:42.835Z,23.83
2016-12-06T04:27:23.582Z,23.88
2016-12-06T04:28:04.316Z,23.93
2016-12-06T04:28:45.105Z,23.83
2016-12-06T04:29:25.857Z,23.83
2016-12-06T04:30:06.617Z,23.83
2016-12-06T04:30:47.366Z,23.83
2016-12-06T04:31:28.124Z,23.88
2016-12-06T04:32:08.867Z,23.8
2016-12-06T04:32:49.622Z,23.8
2016-12-06T04:33:30.375Z,23.83
2016-12-06T04:34:11.099Z,23.84
2016-12-06T04:34:51.862Z,23.83
2016-12-06T04:35:32.641Z,23.79
2016-12-06T04:36:13.416Z,23.83
2016-12-06T04:36:54.171Z,23.73
2016-12-06T04:37:34.948Z,23.91
2016-12-06T04:38:15.704Z,23.85
2016-12-06T04:38:56.451Z,23.78
2016-12-06T04:39:37.242Z,23.76
2016-12-06T04:40:17.995Z,23.83
2016-12-06T04:40:58.749Z,23.75
2016-12-06T04:41:39.516Z,23.83
2016-12-06T04:42:20.288Z,23.87
2016-12-06T04:43:01.031Z,23.8
2016-12-06T04:43:41.809Z,23.84
2016-12-06T04:44:22.548Z,23.85
2016-12-06T04:45:03.283Z,23.8
2016-12-06T04:45:44.036Z,23.8
2016-12-06T04:46:24.792Z,23.94
2016-12-06T04:47:05.536Z,23.9
2016-12-06T04:47:46.294Z,23.85
2016-12-06T04:48:27.075Z,23.79
2016-12-06T04:49:07.835Z,23.94
2016-12-06T04:49:48.616Z,23.76
2016-12-06T04:50:29.401Z,23.84
2016-12-06T04:51:10.140Z,23.85
2016-12-06T04:51:50.908Z,23.79
2016-12-06T04:52:31.686Z,23.76
2016-12-06T04:53:12.457Z,23.79
2016-12-06T04:53:53.233Z,23.78
2016-12-06T04:54:33.994Z,23.73
2016-12-06T04:55:14.742Z,23.76
2016-12-06T04:55:55.480Z,23.8
2016-12-06T04:56:36.250Z,23.76
2016-12-06T04:57:17.021Z,23.79
2016-12-06T04:57:57.775Z,23.79
2016-12-06T04:58:39.339Z,23.73
2016-12-06T04:59:20.099Z,23.76
2016-12-06T05:00:00.870Z,23.78
2016-12-06T05:00:41.633Z,23.78
2016-12-06T05:01:22.414Z,23.79
2016-12-06T05:02:03.161Z,23.79
2016-12-06T05:02:43.904Z,23.76
2016-12-06T05:03:24.664Z,23.8
2016-12-06T05:04:05.411Z,23.76
2016-12-06T05:04:46.142Z,23.78
2016-12-06T05:05:26.912Z,23.78
2016-12-06T05:06:07.683Z,23.84
2016-12-06T05:06:48.406Z,23.79
2016-12-06T05:07:29.188Z,23.79
2016-12-06T05:08:09.963Z,23.78
2016-12-06T05:08:50.741Z,23.78
2016-12-06T05:09:31.489Z,23.83
2016-12-06T05:10:12.238Z,23.76
2016-12-06T05:10:53.011Z,23.79
2016-12-06T05:11:33.755Z,23.78
2016-12-06T05:12:14.494Z,23.79
2016-12-06T05:12:55.272Z,23.76
2016-12-06T05:13:36.020Z,23.84
2016-12-06T05:14:16.779Z,23.79
2016-12-06T05:14:57.530Z,23.78
2016-12-06T05:15:38.302Z,23.8
2016-12-06T05:16:19.071Z,23.83
2016-12-06T05:16:59.840Z,23.87
2016-12-06T05:17:40.620Z,23.79
2016-12-06T05:18:21.354Z,23.84
2016-12-06T05:19:02.105Z,23.76
2016-12-06T05:19:42.882Z,23.79
2016-12-06T05:20:23.630Z,23.83
2016-12-06T05:21:04.368Z,23.79
2016-12-06T05:21:45.127Z,23.8
2016-12-06T05:22:25.879Z,23.83
2016-12-06T05:23:06.615Z,23.79
2016-12-06T05:23:47.408Z,23.78
2016-12-06T05:24:28.179Z,23.78
2016-12-06T05:25:08.936Z,23.79
2016-12-06T05:25:49.678Z,23.84
2016-12-06T05:26:30.447Z,23.79
2016-12-06T05:27:11.226Z,23.8
2016-12-06T05:27:51.980Z,23.85
2016-12-06T05:28:32.765Z,23.83
2016-12-06T05:29:13.500Z,23.78
2016-12-06T05:29:54.258Z,23.83
2016-12-06T05:30:35.008Z,23.79
2016-12-06T05:31:15.766Z,23.79
2016-12-06T05:31:56.529Z,23.83
2016-12-06T05:32:37.303Z,23.8
2016-12-06T05:33:18.062Z,23.79
2016-12-06T05:33:58.810Z,23.79
2016-12-06T05:34:39.591Z,23.84
2016-12-06T05:35:20.379Z,23.85
2016-12-06T05:36:01.142Z,23.84
2016-12-06T05:36:41.901Z,23.84
2016-12-06T05:37:22.691Z,23.73
2016-12-06T05:38:03.463Z,23.8
2016-12-06T05:38:44.212Z,23.8
2016-12-06T05:39:25.013Z,23.84
2016-12-06T05:40:05.753Z,23.84
2016-12-06T05:40:46.502Z,23.76
2016-12-06T05:41:27.281Z,23.75
2016-12-06T05:42:08.045Z,23.79
2016-12-06T05:42:48.798Z,23.85
2016-12-06T05:43:29.560Z,23.76
2016-12-06T05:44:10.333Z,23.79
2016-12-06T05:44:51.069Z,23.75
2016-12-06T05:45:31.848Z,23.79
2016-12-06T05:46:12.607Z,23.78
2016-12-06T05:46:53.364Z,23.79
2016-12-06T05:47:34.113Z,23.76
2016-12-06T05:48:14.877Z,23.8
2016-12-06T05:48:55.634Z,23.78
2016-12-06T05:49:36.388Z,23.83
2016-12-06T05:50:17.146Z,23.78
2016-12-06T05:50:57.882Z,23.78
2016-12-06T05:51:38.654Z,23.73
2016-12-06T05:52:19.415Z,23.79
2016-12-06T05:53:00.162Z,23.76
2016-12-06T05:53:40.899Z,23.84
2016-12-06T05:54:21.660Z,23.79
2016-12-06T05:55:02.427Z,23.76
2016-12-06T05:55:43.176Z,23.79
2016-12-06T05:56:23.946Z,23.76
2016-12-06T05:57:04.681Z,23.75
2016-12-06T05:57:45.445Z,23.76
2016-12-06T05:58:26.203Z,23.8
2016-12-06T05:59:06.993Z,23.79
2016-12-06T05:59:47.745Z,23.76
2016-12-06T06:00:28.502Z,23.78
2016-12-06T06:01:09.274Z,23.84
2016-12-06T06:01:50.028Z,23.87
2016-12-06T06:02:30.785Z,23.8
2016-12-06T06:03:11.538Z,23.78
2016-12-06T06:03:52.302Z,23.78
2016-12-06T06:04:33.039Z,23.79
2016-12-06T06:05:13.811Z,23.79
2016-12-06T06:05:54.572Z,23.8
2016-12-06T06:06:35.304Z,23.78
2016-12-06T06:07:16.062Z,23.76
2016-12-06T06:07:56.833Z,23.79
2016-12-06T06:08:37.588Z,23.78
2016-12-06T06:09:18.336Z,23.76
2016-12-06T06:09:59.115Z,23.8
2016-12-06T06:10:39.866Z,23.79
2016-12-06T06:11:20.618Z,23.78
2016-12-06T06:12:01.392Z,23.8
2016-12-06T06:12:42.138Z,23.78
2016-12-06T06:13:22.893Z,23.78
2016-12-06T06:14:03.647Z,23.78
2016-12-06T06:14:44.402Z,23.8
2016-12-06T06:15:25.145Z,23.79
2016-12-06T06:16:05.924Z,23.8
2016-12-06T06:16:46.685Z,23.79
2016-12-06T06:17:27.417Z,23.73
2016-12-06T06:18:08.196Z,23.78
2016-12-06T06:18:48.979Z,23.76
2016-12-06T06:19:29.734Z,23.83
2016-12-06T06:20:10.505Z,23.75
2016-12-06T06:20:51.277Z,23.83
2016-12-06T06:21:32.048Z,23.79
2016-12-06T06:22:12.805Z,23.76
2016-12-06T06:22:53.586Z,23.84
2016-12-06T06:23:34.328Z,23.76
2016-12-06T06:24:15.087Z,23.79
2016-12-06T06:24:55.842Z,23.79
2016-12-06T06:25:36.604Z,23.79
2016-12-06T06:26:17.350Z,23.79
2016-12-06T06:26:58.136Z,23.8
2016-12-06T06:27:38.914Z,23.78
2016-12-06T06:28:19.644Z,23.79
2016-12-06T06:29:00.418Z,23.83
2016-12-06T06:29:41.170Z,23.83
2016-12-06T06:30:21.913Z,23.79
2016-12-06T06:31:02.677Z,23.83
2016-12-06T06:31:43.444Z,23.87
2016-12-06T06:32:24.193Z,23.87
2016-12-06T06:33:04.942Z,23.8
2016-12-06T06:33:45.721Z,23.79
2016-12-06T06:34:26.496Z,23.8
2016-12-06T06:35:07.252Z,23.79
2016-12-06T06:35:48.019Z,23.78
2016-12-06T06:36:28.784Z,23.8
2016-12-06T06:37:09.538Z,23.79
2016-12-06T06:37:50.300Z,23.8
2016-12-06T06:38:31.057Z,23.88
2016-12-06T06:39:11.782Z,23.83
2016-12-06T06:39:52.551Z,23.84
2016-12-06T06:40:33.309Z,23.84
2016-12-06T06:41:14.069Z,23.87
2016-12-06T06:41:54.816Z,23.91
2016-12-06T06:42:35.586Z,23.8
2016-12-06T06:43:16.367Z,23.87
2016-12-06T06:43:57.124Z,23.79
2016-12-06T06:44:37.918Z,23.8
2016-12-06T06:45:18.663Z,23.91
2016-12-06T06:45:59.423Z,23.78
2016-12-06T06:46:40.186Z,23.93
2016-12-06T06:47:20.974Z,23.87
2016-12-06T06:48:01.702Z,23.83
2016-12-06T06:48:42.485Z,23.83
2016-12-06T06:49:23.239Z,23.83
2016-12-06T06:50:03.991Z,23.83
2016-12-06T06:50:44.758Z,23.87
2016-12-06T06:51:25.549Z,23.88
2016-12-06T06:52:06.296Z,23.8
2016-12-06T06:52:47.060Z,23.84
2016-12-06T06:53:27.829Z,23.79
2016-12-06T06:54:08.585Z,23.78
2016-12-06T06:54:49.335Z,23.78
2016-12-06T06:55:30.139Z,23.87
2016-12-06T06:56:10.883Z,23.78
2016-12-06T06:56:51.651Z,23.79
2016-12-06T06:57:32.415Z,23.83
2016-12-06T06:58:13.219Z,23.78
2016-12-06T06:58:53.977Z,23.79
2016-12-06T06:59:34.746Z,23.79
2016-12-06T07:00:15.506Z,23.78
2016-12-06T07:00:56.245Z,23.8
2016-12-06T07:01:37.029Z,23.76
2016-12-06T07:02:17.780Z,23.78
2016-12-06T07:02:58.549Z,23.79
2016-12-06T07:03:39.306Z,23.76
2016-12-06T07:04:20.093Z,23.79
2016-12-06T07:05:00.863Z,23.79
2016-12-06T07:05:41.629Z,23.79
2016-12-06T07:06:22.404Z,23.78
2016-12-06T07:07:03.160Z,23.75
2016-12-06T07:07:43.943Z,23.8
2016-12-06T07:08:24.710Z,23.79
2016-12-06T07:09:05.463Z,23.83
2016-12-06T07:09:46.210Z,23.84
2016-12-06T07:10:26.971Z,23.85
2016-12-06T07:11:07.740Z,23.78
2016-12-06T07:11:48.472Z,23.8
2016-12-06T07:12:29.241Z,23.84
2016-12-06T07:13:09.985Z,23.83
2016-12-06T07:13:50.750Z,23.79
2016-12-06T07:14:31.506Z,23.79
2016-12-06T07:15:12.283Z,23.76
2016-12-06T07:15:53.055Z,23.78
2016-12-06T07:16:33.821Z,23.75
2016-12-06T07:17:14.601Z,23.78
2016-12-06T07:17:55.362Z,23.73
2016-12-06T07:18:36.125Z,23.78
2016-12-06T07:19:16.892Z,23.73
2016-12-06T07:19:57.657Z,23.84
2016-12-06T07:20:38.424Z,23.79
2016-12-06T07:21:19.190Z,23.79
2016-12-06T07:21:59.940Z,23.78
2016-12-06T07:22:40.663Z,23.84
2016-12-06T07:23:21.419Z,23.78
2016-12-06T07:24:02.176Z,23.78
2016-12-06T07:24:42.907Z,23.8
2016-12-06T07:25:23.661Z,23.84
2016-12-06T07:26:04.413Z,23.84
2016-12-06T07:26:45.163Z,23.83
2016-12-06T07:27:25.908Z,23.78
2016-12-06T07:28:06.646Z,23.79
2016-12-06T07:28:47.419Z,23.8
2016-12-06T07:29:28.182Z,23.8
2016-12-06T07:30:08.930Z,23.7
2016-12-06T07:30:49.670Z,23.78
2016-12-06T07:31:30.473Z,23.79
2016-12-06T07:32:11.222Z,23.83
2016-12-06T07:32:51.988Z,23.8
2016-12-06T07:33:32.767Z,23.76
2016-12-06T07:34:13.511Z,23.79
2016-12-06T07:34:54.260Z,23.84
2016-12-06T07:35:35.027Z,23.76
2016-12-06T07:36:15.779Z,23.84
2016-12-06T07:36:56.533Z,23.8
2016-12-06T07:37:37.337Z,23.75
2016-12-06T07:38:18.107Z,23.84
2016-12-06T07:38:58.836Z,23.79
2016-12-06T07:39:39.620Z,23.78
2016-12-06T07:40:20.379Z,23.76
2016-12-06T07:41:01.159Z,23.79
2016-12-06T07:41:41.920Z,23.79
2016-12-06T07:42:22.689Z,23.72
2016-12-06T07:43:03.442Z,23.76
2016-12-06T07:43:44.192Z,23.76
2016-12-06T07:44:24.981Z,23.84
2016-12-06T07:45:05.739Z,23.8
2016-12-06T07:45:46.516Z,23.83
2016-12-06T07:46:27.281Z,23.68
2016-12-06T07:47:08.056Z,23.84
2016-12-06T07:47:48.805Z,23.79
2016-12-06T07:48:29.582Z,23.88
2016-12-06T07:49:10.342Z,23.79
2016-12-06T07:49:51.080Z,23.79
2016-12-06T07:50:31.844Z,23.78
2016-12-06T07:51:12.596Z,23.78
2016-12-06T07:51:53.362Z,23.69
2016-12-06T07:52:34.139Z,23.7
2016-12-06T07:53:14.898Z,23.72
2016-12-06T07:53:55.642Z,23.69
2016-12-06T07:54:36.400Z,23.73
2016-12-06T07:55:17.194Z,23.73
2016-12-06T07:55:57.925Z,23.84
2016-12-06T07:56:38.677Z,23.72
2016-12-06T07:57:19.433Z,23.73
2016-12-06T07:58:00.203Z,23.8
2016-12-06T07:58:40.945Z,23.75
2016-12-06T07:59:21.693Z,23.75
2016-12-06T08:00:02.444Z,23.79
2016-12-06T08:00:43.188Z,23.78
2016-12-06T08:01:23.938Z,23.78
2016-12-06T08:02:04.701Z,23.73
2016-12-06T08:02:45.441Z,23.7
2016-12-06T08:03:26.186Z,23.72
2016-12-06T08:04:06.977Z,23.7
2016-12-06T08:04:47.697Z,23.75
2016-12-06T08:05:28.443Z,23.76
2016-12-06T08:06:09.239Z,23.79
2016-12-06T08:06:49.991Z,23.78
2016-12-06T08:07:30.744Z,23.73
2016-12-06T08:08:11.530Z,23.76
2016-12-06T08:08:52.286Z,23.72
2016-12-06T08:09:33.025Z,23.7
2016-12-06T08:10:13.794Z,23.68
2016-12-06T08:10:54.544Z,23.69
2016-12-06T08:11:35.262Z,23.66
2016-12-06T08:12:16.065Z,23.66
2016-12-06T08:12:56.841Z,23.66
2016-12-06T08:13:37.592Z,23.68
2016-12-06T08:14:18.359Z,23.66
2016-12-06T08:14:59.142Z,23.6
2016-12-06T08:15:39.908Z,23.69
2016-12-06T08:16:20.649Z,23.69
2016-12-06T08:17:01.445Z,23.7
2016-12-06T08:17:42.186Z,23.66
2016-12-06T08:18:22.943Z,23.66
2016-12-06T08:19:03.728Z,23.66
2016-12-06T08:19:44.485Z,23.66
2016-12-06T08:20:25.257Z,23.65
2016-12-06T08:21:06.006Z,23.65
2016-12-06T08:21:46.771Z,23.69
2016-12-06T08:22:27.493Z,23.69
2016-12-06T08:23:08.263Z,23.66
2016-12-06T08:23:49.020Z,23.73
2016-12-06T08:24:29.782Z,23.73
2016-12-06T08:25:10.546Z,23.66
2016-12-06T08:25:51.349Z,23.66
2016-12-06T08:26:32.084Z,23.61
2016-12-06T08:27:12.843Z,23.63
2016-12-06T08:27:53.619Z,23.66
2016-12-06T08:28:34.374Z,23.69
2016-12-06T08:29:15.153Z,23.63
2016-12-06T08:29:55.927Z,23.63
2016-12-06T08:30:36.688Z,23.66
2016-12-06T08:31:17.417Z,23.53
2016-12-06T08:31:58.179Z,23.72
2016-12-06T08:32:38.930Z,23.65
2016-12-06T08:33:19.665Z,23.68
2016-12-06T08:34:00.455Z,23.66
2016-12-06T08:34:41.218Z,23.7
2016-12-06T08:35:21.953Z,23.65
2016-12-06T08:36:02.704Z,23.6
2016-12-06T08:36:43.482Z,23.66
2016-12-06T08:37:24.231Z,23.65
2016-12-06T08:38:04.987Z,23.68
2016-12-06T08:38:45.769Z,23.66
2016-12-06T08:39:26.515Z,23.65
2016-12-06T08:40:07.275Z,23.61
2016-12-06T08:40:48.040Z,23.72
2016-12-06T08:41:28.824Z,23.58
2016-12-06T08:42:09.585Z,23.65
2016-12-06T08:42:50.363Z,23.7
2016-12-06T08:43:31.158Z,23.61
2016-12-06T08:44:11.890Z,23.63
2016-12-06T08:44:52.651Z,23.68
2016-12-06T08:45:33.401Z,23.7
2016-12-06T08:46:14.155Z,23.68
2016-12-06T08:46:54.944Z,23.65
2016-12-06T08:47:35.715Z,23.69